Time;durP1;ratioP1;P1;durP2;ratioP2;P2;SDS_P1;SDS_P2;PMS_P1;PMS_P2;Temp;Humidity;BMP_temperature;BMP_pressure;BME280_temperature;BME280_humidity;BME280_pressure;Samples;Min_cycle;Max_cycle;Signal;HPM_P1;HPM_P2
2022/05/20 00:02:23;;;;;;;3.47;1.97;;;;;;;12.45;66.07;100142.41;5050284;28;20211;-90
2022/05/20 00:04:49;;;;;;;2.43;1.80;;;;;;;12.41;65.63;100146.91;5050291;28;20238;-91
2022/05/20 00:07:16;;;;;;;3.07;1.87;;;;;;;12.40;66.54;100144.44;5049841;28;20207;-90
2022/05/20 00:09:43;;;;;;;2.10;1.70;;;;;;;12.40;66.93;100140.13;5049825;28;20227;-81
2022/05/20 00:12:12;;;;;;;2.20;1.90;;;;;;;12.38;66.20;100141.97;5049796;28;20198;-90
2022/05/20 00:14:39;;;;;;;3.20;1.90;;;;;;;12.36;66.81;100138.69;5049661;28;20238;-90
2022/05/20 00:17:06;;;;;;;2.10;1.90;;;;;;;12.29;66.42;100139.97;5049859;28;20203;-81
2022/05/20 00:19:34;;;;;;;2.50;1.80;;;;;;;12.30;67.36;100136.47;5049625;28;20231;-81
2022/05/20 00:22:01;;;;;;;3.90;1.90;;;;;;;12.27;66.98;100139.25;5049890;28;20278;-81
2022/05/20 00:24:29;;;;;;;3.87;1.80;;;;;;;12.27;67.27;100134.13;5049500;28;20227;-90
2022/05/20 00:26:56;;;;;;;2.53;1.90;;;;;;;12.19;67.49;100133.78;5049841;28;20209;-82
2022/05/20 00:29:25;;;;;;;3.60;1.87;;;;;;;12.17;67.84;100133.88;5049530;28;20674;-81
2022/05/20 00:31:52;;;;;;;2.33;2.00;;;;;;;12.18;68.19;100129.56;5049510;28;20277;-82
2022/05/20 00:34:19;;;;;;;2.53;1.80;;;;;;;12.18;68.03;100129.56;5049238;28;20245;-81
2022/05/20 00:36:45;;;;;;;4.90;2.20;;;;;;;12.14;68.67;100136.63;5049705;28;20211;-81
2022/05/20 00:39:12;;;;;;;2.30;2.00;;;;;;;12.10;68.67;100131.78;5049487;28;20231;-81
2022/05/20 00:41:39;;;;;;;2.80;2.10;;;;;;;12.08;69.19;100131.06;5049353;28;20206;-81
2022/05/20 00:44:06;;;;;;;3.77;2.10;;;;;;;12.05;68.79;100123.56;5049472;28;20211;-90
2022/05/20 00:46:35;;;;;;;2.23;1.80;;;;;;;12.02;69.34;100131.44;5049654;28;20195;-81
2022/05/20 00:49:05;;;;;;;1.70;1.60;;;;;;;11.97;69.70;100129.97;5049578;28;20199;-90
2022/05/20 00:51:35;;;;;;;3.13;1.80;;;;;;;11.91;69.98;100132.91;5049370;28;20596;-90
2022/05/20 00:54:06;;;;;;;3.33;1.80;;;;;;;11.86;70.01;100132.34;5049354;28;20598;-81
2022/05/20 00:56:37;;;;;;;2.50;1.87;;;;;;;11.80;70.52;100135.25;5049685;28;20230;-90
2022/05/20 00:59:05;;;;;;;4.67;1.97;;;;;;;11.72;70.44;100134.91;5049506;28;20195;-89
2022/05/20 01:01:34;;;;;;;2.83;2.13;;;;;;;11.74;70.22;100135.63;5049264;28;20724;-89
2022/05/20 01:04:03;;;;;;;3.90;1.90;;;;;;;11.71;69.96;100140.94;5053154;28;20203;-81
2022/05/20 01:06:30;;;;;;;2.10;1.90;;;;;;;11.68;70.20;100139.38;5052658;28;20206;-90
2022/05/20 01:08:57;;;;;;;2.47;1.97;;;;;;;11.60;70.12;100133.91;5053203;28;20203;-89
2022/05/20 01:11:25;;;;;;;2.40;2.00;;;;;;;11.52;70.24;100133.56;5052897;28;20261;-81
2022/05/20 01:13:52;;;;;;;5.13;1.90;;;;;;;11.47;70.27;100128.69;5053189;28;20211;-88
2022/05/20 01:16:20;;;;;;;2.13;1.60;;;;;;;11.49;70.60;100128.59;5052856;28;20592;-81
2022/05/20 01:18:53;;;;;;;2.53;1.80;;;;;;;11.45;71.06;100129.69;5052781;28;20207;-89
2022/05/20 01:21:21;;;;;;;2.97;1.80;;;;;;;11.41;71.71;100129.06;5052839;28;20236;-81
2022/05/20 01:23:50;;;;;;;2.33;2.10;;;;;;;11.33;72.07;100142.31;5052703;28;20215;-81
2022/05/20 01:26:17;;;;;;;2.80;2.00;;;;;;;11.31;72.71;100127.94;5052573;28;20219;-89
2022/05/20 01:28:44;;;;;;;5.67;1.90;;;;;;;11.26;72.49;100135.09;5052470;28;20202;-90
2022/05/20 01:31:13;;;;;;;2.17;1.97;;;;;;;11.20;72.55;100135.41;5052756;28;20223;-90
2022/05/20 01:33:42;;;;;;;3.87;2.33;;;;;;;11.22;72.64;100136.16;5052571;28;20222;-90
2022/05/20 01:36:12;;;;;;;2.23;1.87;;;;;;;11.23;72.17;100136.09;5052488;28;20235;-90
2022/05/20 01:38:39;;;;;;;3.27;1.97;;;;;;;11.19;72.25;100133.78;5052408;28;20206;-81
2022/05/20 01:41:11;;;;;;;2.50;1.90;;;;;;;11.14;72.46;100135.78;5051954;28;20219;-81
2022/05/20 01:43:49;;;;;;;4.53;2.00;;;;;;;11.13;72.09;100136.69;5052470;28;20199;-81
2022/05/20 01:46:26;;;;;;;2.60;1.90;;;;;;;11.19;72.17;100134.59;5051999;28;20228;-81
2022/05/20 01:49:01;;;;;;;2.40;2.00;;;;;;;11.15;72.42;100133.13;5052390;28;20598;-82
2022/05/20 01:51:33;;;;;;;4.87;2.00;;;;;;;11.07;72.75;100135.31;5052082;28;20202;-80
2022/05/20 01:54:07;;;;;;;2.13;1.70;;;;;;;11.01;73.17;100130.56;5052120;28;20269;-80
2022/05/20 01:56:42;;;;;;;2.97;2.00;;;;;;;10.97;72.88;100135.03;5051975;28;20234;-81
2022/05/20 01:59:14;;;;;;;3.77;2.00;;;;;;;10.91;73.77;100130.25;5052047;28;20213;-81
2022/05/20 02:01:46;;;;;;;3.17;1.80;;;;;;;10.85;73.17;100126.31;5052186;28;20290;-81
2022/05/20 02:04:19;;;;;;;2.30;2.00;;;;;;;10.81;73.40;100129.13;5051783;28;20223;-81
2022/05/20 02:06:53;;;;;;;5.23;2.00;;;;;;;10.81;73.65;100124.00;5052127;28;20208;-81
2022/05/20 02:09:26;;;;;;;2.57;1.83;;;;;;;10.81;74.02;100124.00;5052074;28;20237;-90
2022/05/20 02:11:57;;;;;;;2.17;1.80;;;;;;;10.75;74.01;100124.34;5051741;28;20192;-81
2022/05/20 02:14:28;;;;;;;2.10;1.90;;;;;;;10.72;73.72;100120.22;5051499;28;20231;-90
2022/05/20 02:17:10;;;;;;;2.57;2.00;;;;;;;10.77;74.08;100115.69;5052126;28;20188;-89
2022/05/20 02:19:42;;;;;;;4.90;1.93;;;;;;;10.74;73.58;100118.41;5051686;28;20235;-87
2022/05/20 02:22:14;;;;;;;2.63;2.03;;;;;;;10.71;73.49;100112.66;5051643;28;20253;-89
2022/05/20 02:24:43;;;;;;;2.00;1.77;;;;;;;10.74;73.80;100117.59;5051400;28;20246;-90
2022/05/20 02:27:18;;;;;;;2.67;1.80;;;;;;;10.72;74.21;100116.84;5051457;28;20677;-81
2022/05/20 02:29:50;;;;;;;2.47;1.80;;;;;;;10.72;74.17;100121.97;5051230;28;20227;-90
2022/05/20 02:32:24;;;;;;;3.03;2.03;;;;;;;10.70;74.61;100116.91;5051466;28;20580;-81
2022/05/20 02:34:52;;;;;;;2.77;1.90;;;;;;;10.67;74.66;100117.09;5051728;28;20233;-89
2022/05/20 02:37:25;;;;;;;5.47;2.10;;;;;;;10.60;74.33;100121.75;5051301;28;20199;-81
2022/05/20 02:39:52;;;;;;;2.00;1.77;;;;;;;10.63;74.36;100116.44;5051332;28;20219;-90
2022/05/20 02:42:21;;;;;;;3.40;1.80;;;;;;;10.60;74.36;100121.75;5051100;28;20199;-81
2022/05/20 02:44:48;;;;;;;2.60;1.93;;;;;;;10.63;74.47;100124.13;5051193;28;20230;-90
2022/05/20 02:47:15;;;;;;;2.47;1.70;;;;;;;10.64;74.62;100128.31;5051443;28;20204;-90
2022/05/20 02:49:42;;;;;;;3.47;1.97;;;;;;;10.61;74.86;100127.69;5051252;28;20284;-90
2022/05/20 02:52:09;;;;;;;2.63;1.93;;;;;;;10.53;75.23;100128.13;5051192;28;20464;-89
2022/05/20 02:54:36;;;;;;;2.23;2.03;;;;;;;10.48;75.43;100124.16;5050968;28;20230;-81
2022/05/20 02:57:04;;;;;;;2.77;2.10;;;;;;;10.47;75.35;100131.00;5051395;28;20199;-89
2022/05/20 03:05:00;;;;;;;4.97;1.93;;;;;;;10.36;75.79;100134.16;5050864;28;20234;-88
2022/05/20 03:07:27;;;;;;;3.70;2.00;;;;;;;10.36;75.89;100138.44;5050707;28;20210;-90
2022/05/20 03:09:54;;;;;;;3.70;2.00;;;;;;;10.32;75.78;100136.94;5051010;28;20227;-81
2022/05/20 03:12:21;;;;;;;3.90;2.03;;;;;;;10.35;75.61;100141.88;5050983;28;20219;-90
2022/05/20 03:14:49;;;;;;;4.10;1.97;;;;;;;10.34;76.02;100140.25;5050672;28;20219;-82
2022/05/20 03:17:16;;;;;;;3.40;1.93;;;;;;;10.36;76.39;100143.56;5050669;28;20214;-90
2022/05/20 03:19:43;;;;;;;2.33;1.90;;;;;;;10.35;76.43;100137.59;5050280;28;20223;-90
2022/05/20 03:22:10;;;;;;;3.00;1.90;;;;;;;10.39;76.61;100138.28;5050331;28;20207;-81
2022/05/20 03:24:37;;;;;;;3.53;2.00;;;;;;;10.38;76.56;100146.84;5049889;28;20215;-81
2022/05/20 03:27:05;;;;;;;3.13;1.87;;;;;;;10.39;76.20;100154.44;5050408;28;20222;-81
2022/05/20 03:29:32;;;;;;;3.80;2.00;;;;;;;10.48;76.43;100150.56;5050357;28;20258;-81
2022/05/20 03:32:01;;;;;;;2.13;1.80;;;;;;;10.47;76.91;100150.63;5050236;28;20258;-90
2022/05/20 03:34:28;;;;;;;3.17;1.87;;;;;;;10.44;77.05;100146.50;5050298;28;20223;-89
2022/05/20 03:36:55;;;;;;;2.40;1.80;;;;;;;10.47;77.11;100148.06;5050308;28;20234;-81
2022/05/20 03:39:24;;;;;;;3.80;2.00;;;;;;;10.48;77.04;100148.00;5050235;28;20314;-85
2022/05/20 03:41:51;;;;;;;3.77;1.67;;;;;;;10.52;77.05;100154.56;5050205;28;20261;-81
2022/05/20 03:44:20;;;;;;;3.70;2.17;;;;;;;10.58;77.03;100154.22;5050400;28;20683;-81
2022/05/20 03:46:49;;;;;;;4.10;2.10;;;;;;;10.60;77.17;100157.53;5049934;28;20195;-90
2022/05/20 03:49:17;;;;;;;2.20;1.77;;;;;;;10.63;76.95;100159.94;5049990;28;20493;-81
2022/05/20 03:51:45;;;;;;;1.93;1.70;;;;;;;10.69;76.87;100157.94;5049832;28;20203;-90
2022/05/20 03:54:12;;;;;;;4.70;2.17;;;;;;;10.71;77.13;100158.69;5050114;28;20207;-84
2022/05/20 03:56:40;;;;;;;4.40;2.40;;;;;;;10.74;76.74;100158.53;5049731;28;20227;-90
2022/05/20 03:59:08;;;;;;;5.63;2.00;;;;;;;10.78;77.36;100157.44;5050138;28;20211;-90
2022/05/20 04:04:21;;;;;;;3.23;2.20;;;;;;;10.90;77.29;100151.63;5049953;28;20218;-81
2022/05/20 04:06:48;;;;;;;2.10;1.80;;;;;;;11.00;76.95;100165.56;5049717;28;20613;-90
2022/05/20 04:09:15;;;;;;;2.67;1.90;;;;;;;11.09;77.11;100165.03;5049624;28;20230;-81
2022/05/20 04:11:42;;;;;;;2.57;1.90;;;;;;;11.15;76.94;100168.16;5049697;28;20203;-81
2022/05/20 04:14:09;;;;;;;2.77;1.90;;;;;;;11.23;76.94;100181.34;5049899;28;20653;-81
2022/05/20 04:16:37;;;;;;;3.27;1.90;;;;;;;11.33;77.03;100177.31;5049572;28;20223;-82
2022/05/20 04:19:03;;;;;;;3.13;2.20;;;;;;;11.46;76.87;100185.97;5049338;28;20207;-90
2022/05/20 04:21:32;;;;;;;4.80;1.87;;;;;;;11.64;76.83;100186.63;5049509;28;20203;-91
2022/05/20 04:23:59;;;;;;;8.20;2.00;;;;;;;11.77;76.88;100182.38;5049729;28;20214;-89
2022/05/20 04:26:26;;;;;;;3.07;1.90;;;;;;;11.88;75.96;100188.66;5049575;28;20202;-82
2022/05/20 04:28:52;;;;;;;3.13;1.80;;;;;;;12.11;76.43;100189.84;5049917;28;20207;-81
2022/05/20 04:31:19;;;;;;;3.60;1.77;;;;;;;12.30;75.35;100195.47;5049570;28;20201;-81
2022/05/20 04:33:46;;;;;;;2.87;1.77;;;;;;;12.56;76.50;100185.31;5049560;28;20210;-82
2022/05/20 04:36:13;;;;;;;4.83;2.00;;;;;;;12.69;73.68;100186.22;5049928;28;20241;-90
2022/05/20 04:38:41;;;;;;;4.33;1.60;;;;;;;12.94;73.43;100184.63;5053682;28;20203;-81
2022/05/20 04:49:21;;;;;;;1.90;1.50;;;;;;;14.12;68.66;100185.31;5053386;28;20596;-82
2022/05/20 04:51:48;;;;;;;2.97;1.80;;;;;;;14.44;67.49;100190.75;5053307;28;20296;-90
2022/05/20 04:57:00;;;;;;;2.20;1.67;;;;;;;15.11;64.53;100185.13;5053186;28;20299;-82
2022/05/20 04:59:27;;;;;;;3.27;1.60;;;;;;;15.43;63.34;100194.78;5053103;28;20230;-82
2022/05/20 05:01:54;;;;;;;2.13;1.70;;;;;;;15.72;60.86;100199.53;5053298;28;20196;-82
2022/05/20 05:04:22;;;;;;;1.90;1.70;;;;;;;16.04;61.66;100199.66;5053349;28;20226;-91
2022/05/20 05:06:49;;;;;;;2.23;1.60;;;;;;;16.31;58.55;100196.69;5053079;28;20214;-90
2022/05/20 05:09:17;;;;;;;4.30;1.90;;;;;;;16.59;57.80;100200.50;5053022;28;20227;-90
2022/05/20 05:11:44;;;;;;;2.80;1.70;;;;;;;16.84;55.66;100198.53;5052953;28;20199;-82
2022/05/20 05:14:13;;;;;;;1.90;1.43;;;;;;;17.14;55.72;100200.41;5053017;28;20278;-82
2022/05/20 05:16:41;;;;;;;2.57;1.70;;;;;;;17.42;58.90;100194.63;5052945;28;20235;-82
2022/05/20 05:19:08;;;;;;;3.43;1.67;;;;;;;17.71;56.55;100199.09;5052720;28;20841;-84
2022/05/20 05:21:35;;;;;;;3.93;1.80;;;;;;;17.96;53.33;100197.06;5052794;28;20596;-85
2022/05/20 05:24:02;;;;;;;2.00;1.60;;;;;;;18.03;50.21;100198.16;5052480;28;20199;-82
2022/05/20 05:26:33;;;;;;;2.00;1.57;;;;;;;18.06;49.41;100190.13;5052668;28;20581;-82
2022/05/20 05:29:01;;;;;;;1.80;1.60;;;;;;;18.22;50.18;100189.66;5052360;28;20203;-80
2022/05/20 05:31:28;;;;;;;5.57;1.90;;;;;;;18.52;49.94;100201.66;5052597;28;20659;-82
2022/05/20 05:33:55;;;;;;;3.40;1.70;;;;;;;18.64;47.69;100192.00;5052730;28;20218;-81
2022/05/20 05:36:22;;;;;;;2.87;1.73;;;;;;;18.87;49.55;100198.59;5052363;28;20243;-85
2022/05/20 05:38:49;;;;;;;12.20;2.30;;;;;;;19.18;50.10;100191.47;5052362;28;20372;-82
2022/05/20 05:41:17;;;;;;;2.60;1.73;;;;;;;19.34;49.12;100203.03;5052069;28;20234;-81
2022/05/20 05:43:47;;;;;;;3.17;1.73;;;;;;;19.67;48.33;100202.56;5052583;28;20214;-82
2022/05/20 05:46:14;;;;;;;2.93;1.80;;;;;;;19.75;45.58;100209.66;5051928;28;20772;-81
2022/05/20 05:48:41;;;;;;;2.53;1.60;;;;;;;19.85;46.36;100210.41;5051557;28;20596;-82
2022/05/20 05:51:07;;;;;;;3.33;1.60;;;;;;;19.94;44.76;100207.94;5051820;28;20224;-82
2022/05/20 05:53:34;;;;;;;1.60;1.50;;;;;;;20.19;45.88;100201.22;5052237;28;20201;-84
2022/05/20 05:56:05;;;;;;;2.60;1.70;;;;;;;20.19;43.93;100209.84;5052047;28;20236;-82
2022/05/20 05:58:33;;;;;;;2.00;1.70;;;;;;;20.42;44.86;100212.03;5052172;28;20392;-81
2022/05/20 06:01:01;;;;;;;3.77;1.50;;;;;;;20.58;44.58;100209.63;5051953;28;20226;-82
2022/05/20 06:03:28;;;;;;;2.00;1.53;;;;;;;20.77;44.30;100195.69;5052000;28;20213;-82
2022/05/20 06:05:55;;;;;;;2.20;1.47;;;;;;;20.99;45.48;100197.78;5052342;28;20222;-82
2022/05/20 06:08:22;;;;;;;4.47;1.80;;;;;;;21.19;45.11;100200.22;5052088;28;20208;-82
2022/05/20 06:10:50;;;;;;;6.03;1.60;;;;;;;21.34;45.69;100193.47;5052152;28;20232;-81
2022/05/20 06:13:22;;;;;;;2.80;1.60;;;;;;;21.59;44.02;100196.25;5052242;28;20646;-82
2022/05/20 06:15:49;;;;;;;2.23;1.80;;;;;;;21.83;44.20;100196.38;5051894;28;20269;-81
2022/05/20 06:18:18;;;;;;;4.73;1.60;;;;;;;22.16;46.37;100193.88;5051834;28;20203;-83
2022/05/20 06:20:45;;;;;;;4.73;1.80;;;;;;;22.43;44.73;100202.44;5051454;28;21148;-81
2022/05/20 06:23:11;;;;;;;2.03;1.60;;;;;;;22.29;45.40;100198.69;5051754;28;20226;-81
2022/05/20 06:25:38;;;;;;;2.85;1.70;;;;;;;22.37;43.58;100202.13;5051426;28;20227;-81
2022/05/20 06:28:07;;;;;;;3.33;1.73;;;;;;;22.29;43.65;100207.31;5051465;28;20696;-82
2022/05/20 06:30:34;;;;;;;2.92;1.60;;;;;;;22.40;42.41;100205.34;5051951;28;20230;-82
2022/05/20 06:33:03;;;;;;;7.05;1.80;;;;;;;22.70;42.27;100199.53;5051511;28;20198;-82
2022/05/20 06:41:01;;;;;;;2.87;1.80;;;;;;;22.66;42.07;100210.44;5051385;28;20222;-82
2022/05/20 06:43:28;;;;;;;2.17;1.67;;;;;;;23.08;42.03;100205.13;5051313;28;20204;-83
2022/05/20 06:45:58;;;;;;;7.78;1.90;;;;;;;23.32;41.70;100212.09;5051314;28;20215;-81
2022/05/20 06:48:26;;;;;;;4.63;1.70;;;;;;;23.61;40.43;100216.75;5051352;28;20211;-82
2022/05/20 06:50:54;;;;;;;2.00;1.60;;;;;;;23.96;44.34;100214.69;5051159;28;20232;-82
2022/05/20 06:53:21;;;;;;;3.72;1.88;;;;;;;24.25;42.69;100213.25;5051264;28;20595;-82
2022/05/20 06:55:48;;;;;;;4.45;1.73;;;;;;;24.49;40.50;100205.28;5050931;28;20230;-82
2022/05/20 06:58:14;;;;;;;2.67;1.67;;;;;;;24.44;37.20;100212.84;5051053;28;20318;-82
2022/05/20 07:00:41;;;;;;;4.57;1.73;;;;;;;24.52;39.51;100209.34;5049631;28;20223;-82
2022/05/20 07:03:08;;;;;;;6.85;2.30;;;;;;;24.68;39.67;100213.66;5050869;28;20202;-82
2022/05/20 07:05:35;;;;;;;3.20;1.70;;;;;;;24.83;36.52;100209.28;5051043;28;20226;-82
2022/05/20 07:08:04;;;;;;;9.10;1.70;;;;;;;25.25;37.54;100210.59;5050990;28;20202;-82
2022/05/20 07:10:31;;;;;;;1.95;1.67;;;;;;;25.29;36.63;100211.84;5050854;28;20227;-82
2022/05/20 07:12:57;;;;;;;3.45;1.83;;;;;;;25.36;36.94;100206.72;5050495;28;20674;-82
2022/05/20 07:15:24;;;;;;;4.88;1.73;;;;;;;25.42;36.65;100216.47;5050398;28;20739;-82
2022/05/20 07:17:51;;;;;;;2.03;1.63;;;;;;;25.66;35.90;100216.22;5050656;28;20724;-82
2022/05/20 07:20:18;;;;;;;3.33;1.70;;;;;;;25.68;33.79;100219.44;5050325;28;20235;-83
2022/05/20 07:22:45;;;;;;;3.92;1.60;;;;;;;25.77;35.37;100209.66;5050466;28;20203;-82
2022/05/20 07:25:14;;;;;;;3.50;1.70;;;;;;;25.87;36.01;100210.25;5050332;28;20231;-82
2022/05/20 07:27:40;;;;;;;4.03;1.90;;;;;;;25.98;36.78;100214.22;5050519;28;20681;-82
2022/05/20 07:30:09;;;;;;;2.33;1.70;;;;;;;25.70;36.98;100214.03;5050186;28;20227;-82
2022/05/20 07:32:36;;;;;;;3.35;1.67;;;;;;;26.17;36.94;100215.44;5050303;28;20217;-82
2022/05/20 07:35:03;;;;;;;4.10;1.85;;;;;;;26.39;35.77;100219.72;5050400;28;20685;-82
2022/05/20 07:37:30;;;;;;;2.53;1.90;;;;;;;26.61;36.42;100219.72;5049946;28;20237;-82
2022/05/20 07:39:57;;;;;;;2.28;1.80;;;;;;;26.46;35.50;100224.22;5049992;28;20308;-82
2022/05/20 07:42:26;;;;;;;2.92;1.95;;;;;;;26.81;36.08;100219.91;5050248;28;20210;-82
2022/05/20 07:44:52;;;;;;;2.80;1.83;;;;;;;26.79;38.52;100219.28;5050025;28;20231;-82
2022/05/20 07:47:20;;;;;;;3.28;2.25;;;;;;;26.78;36.50;100217.69;5050282;28;20203;-82
2022/05/20 07:49:47;;;;;;;3.38;2.10;;;;;;;27.18;36.61;100218.81;5050119;28;20281;-82
2022/05/20 07:53:19;;;;;;;3.20;2.20;;;;;;;27.40;34.96;100222.22;5049891;28;20662;-82
2022/05/20 07:55:07;;;;;;;2.35;2.05;;;;;;;27.60;36.24;100227.56;5049647;28;20664;-82
2022/05/20 07:57:37;;;;;;;2.90;2.20;;;;;;;27.89;37.49;100223.06;5049945;28;20253;-82
2022/05/20 08:00:06;;;;;;;2.40;2.10;;;;;;;27.66;35.75;100221.53;5049701;28;20223;-82
2022/05/20 08:02:34;;;;;;;3.05;2.00;;;;;;;27.99;36.44;100231.44;5049849;28;20200;-82
2022/05/20 08:05:01;;;;;;;2.53;1.95;;;;;;;28.24;35.72;100236.16;5049506;28;20219;-81
2022/05/20 08:07:32;;;;;;;2.95;2.40;;;;;;;28.05;38.09;100225.38;5049730;28;20666;-82
2022/05/20 08:09:59;;;;;;;4.68;2.00;;;;;;;28.34;37.34;100229.50;5049677;28;20316;-82
2022/05/20 08:12:26;;;;;;;3.63;2.25;;;;;;;28.45;36.33;100225.53;5049592;28;20200;-82
2022/05/20 08:14:55;;;;;;;5.10;2.08;;;;;;;28.43;39.05;100227.53;5049647;28;20226;-83
2022/05/20 08:17:24;;;;;;;4.13;2.00;;;;;;;28.71;36.95;100230.00;5049907;28;20250;-82
2022/05/20 08:19:51;;;;;;;5.07;2.40;;;;;;;28.88;33.72;100225.13;5049389;28;20230;-82
2022/05/20 08:22:22;;;;;;;3.40;1.80;;;;;;;28.90;34.73;100223.09;5049601;28;20493;-88
2022/05/20 08:24:52;;;;;;;2.03;1.83;;;;;;;29.11;34.47;100217.66;5049631;28;20226;-89
2022/05/20 08:27:20;;;;;;;3.33;2.10;;;;;;;29.43;35.25;100209.09;5050338;28;20646;-88
2022/05/20 08:29:47;;;;;;;3.67;1.80;;;;;;;29.46;31.14;100206.84;5049489;28;20263;-83
2022/05/20 08:32:15;;;;;;;2.63;1.90;;;;;;;29.61;34.34;100216.31;5049339;28;20669;-82
2022/05/20 08:34:43;;;;;;;2.53;1.70;;;;;;;29.79;33.66;100205.97;5049452;28;20220;-89
2022/05/20 08:37:10;;;;;;;2.97;1.70;;;;;;;29.43;31.67;100206.44;5049484;28;20328;-82
2022/05/20 09:08:29;;;;;;;2.83;1.63;;;;;;;30.87;29.07;100176.88;5062856;28;20560;-82
2022/05/20 09:10:58;;;;;;;6.72;1.80;;;;;;;31.18;29.13;100172.50;5063191;28;20290;-82
2022/05/20 09:16:08;;;;;;;3.10;1.63;;;;;;;30.77;26.82;100176.53;5062716;28;20230;-82
2022/05/20 09:18:39;;;;;;;3.85;1.80;;;;;;;31.00;28.13;100175.13;5063119;27;20210;-88
2022/05/20 09:21:07;;;;;;;5.15;1.80;;;;;;;31.10;27.83;100170.16;5063219;28;20203;-81
2022/05/20 09:23:49;;;;;;;1.60;1.50;;;;;;;31.29;27.55;100163.84;5063429;27;20255;-90
2022/05/20 09:26:24;;;;;;;2.85;1.83;;;;;;;30.86;26.40;100166.53;5063046;27;20219;-82
2022/05/20 09:28:54;;;;;;;2.97;1.60;;;;;;;30.78;26.08;100162.31;5063181;28;20227;-83
2022/05/20 09:31:27;;;;;;;1.67;1.40;;;;;;;30.52;26.80;100162.53;5062989;28;20282;-82
2022/05/20 09:34:08;;;;;;;3.55;1.70;;;;;;;30.81;30.10;100159.28;5062980;28;20194;-82
2022/05/20 09:36:40;;;;;;;1.95;1.40;;;;;;;30.91;24.92;100161.41;5062790;27;20242;-88
2022/05/20 09:39:17;;;;;;;3.38;1.80;;;;;;;31.13;29.14;100148.59;5062883;27;20271;-82
2022/05/20 09:41:50;;;;;;;2.40;1.58;;;;;;;31.28;25.31;100151.66;5062934;28;20223;-88
2022/05/20 09:44:19;;;;;;;2.20;1.70;;;;;;;31.32;27.32;100147.53;5062807;28;20616;-90
2022/05/20 09:46:51;;;;;;;5.05;1.73;;;;;;;31.32;25.86;100141.47;5062531;27;20227;-90
2022/05/20 09:49:26;;;;;;;2.58;1.75;;;;;;;31.22;26.81;100142.00;5062717;28;20294;-83
2022/05/20 09:51:55;;;;;;;2.35;1.60;;;;;;;30.92;26.19;100138.44;5062760;28;20222;-82
2022/05/20 09:54:29;;;;;;;3.67;1.58;;;;;;;31.04;26.13;100131.41;5062787;28;20195;-88
2022/05/20 09:57:05;;;;;;;1.73;1.63;;;;;;;31.13;27.61;100138.03;5062399;28;20239;-87
2022/05/20 09:59:52;;;;;;;1.95;1.60;;;;;;;31.05;26.73;100128.56;5062412;28;20207;-82
2022/05/20 10:02:25;;;;;;;2.53;1.52;;;;;;;31.50;28.18;100138.00;5063055;27;20317;-82
2022/05/20 10:05:03;;;;;;;2.10;1.50;;;;;;;31.70;26.80;100129.84;5062831;27;20211;-82
2022/05/20 10:07:50;;;;;;;3.97;1.83;;;;;;;31.61;26.59;100129.34;5058977;27;20250;-90
2022/05/20 10:10:28;;;;;;;2.60;1.50;;;;;;;31.63;25.29;100122.00;5049137;28;20203;-90
2022/05/20 10:12:58;;;;;;;2.42;1.60;;;;;;;31.90;26.63;100121.63;5048806;28;20287;-91
2022/05/20 10:15:29;;;;;;;2.65;1.70;;;;;;;31.91;25.35;100118.81;5048916;28;20207;-88
2022/05/20 10:18:06;;;;;;;4.93;1.63;;;;;;;31.93;25.00;100126.50;5048319;28;20243;-83
2022/05/20 10:20:37;;;;;;;2.92;1.50;;;;;;;31.94;25.35;100112.22;5048638;28;20291;-90
2022/05/20 10:23:13;;;;;;;1.67;1.45;;;;;;;31.45;24.44;100108.81;5048579;28;20216;-82
2022/05/20 10:25:49;;;;;;;3.90;1.55;;;;;;;31.44;24.67;100108.00;5048764;28;20207;-83
2022/05/20 10:34:08;;;;;;;3.83;1.63;;;;;;;31.67;25.88;100099.34;5048309;28;20230;-83
2022/05/20 10:36:45;;;;;;;3.33;1.58;;;;;;;31.76;25.51;100090.06;5047982;28;20235;-84
2022/05/20 10:39:26;;;;;;;3.95;1.50;;;;;;;31.59;23.78;100091.72;5048203;28;20211;-82
2022/05/20 10:42:13;;;;;;;4.07;1.70;;;;;;;31.84;28.22;100090.78;5054797;27;20237;-86
2022/05/20 10:50:54;;;;;;;2.08;1.55;;;;;;;31.77;24.38;100075.84;5048269;28;20614;-83
2022/05/20 10:53:36;;;;;;;3.00;1.50;;;;;;;31.55;22.96;100070.22;5048208;28;20592;-83
2022/05/20 10:56:29;;;;;;;3.08;1.60;;;;;;;31.58;23.32;100072.44;5047942;28;20208;-83
2022/05/20 10:59:26;;;;;;;3.55;1.58;;;;;;;31.79;22.94;100067.66;5048226;28;20208;-86
2022/05/20 11:02:07;;;;;;;3.45;1.40;;;;;;;31.79;21.24;100057.91;5047913;28;20223;-83
2022/05/20 11:05:12;;;;;;;2.72;1.48;;;;;;;31.43;20.05;100058.00;5048002;28;20222;-85
2022/05/20 11:08:14;;;;;;;2.97;1.40;;;;;;;31.36;23.38;100050.19;5047994;28;20692;-86
2022/05/20 11:11:08;;;;;;;3.47;1.27;;;;;;;31.09;21.61;100036.44;5047829;28;20676;-85
2022/05/20 11:13:54;;;;;;;2.35;1.40;;;;;;;31.18;23.52;100045.69;5047616;28;20680;-86
2022/05/20 11:16:40;;;;;;;1.52;1.42;;;;;;;31.47;23.89;100046.75;5047867;28;20586;-83
2022/05/20 11:19:28;;;;;;;1.35;1.20;;;;;;;31.65;21.04;100039.78;5047063;28;20201;-86
2022/05/20 11:22:12;;;;;;;2.20;1.60;;;;;;;31.58;23.21;100035.41;5047596;28;20776;-85
2022/05/20 11:25:08;;;;;;;2.35;1.38;;;;;;;31.59;22.79;100038.84;5047900;27;20200;-84
2022/05/20 11:28:02;;;;;;;1.60;1.42;;;;;;;31.39;22.94;100039.16;5047596;28;20224;-83
2022/05/20 11:30:47;;;;;;;1.98;1.50;;;;;;;30.92;24.21;100022.22;5047411;27;20199;-85
2022/05/20 11:33:44;;;;;;;2.55;1.45;;;;;;;30.92;22.03;100024.88;5047526;28;20224;-83
2022/05/20 11:36:29;;;;;;;3.60;1.65;;;;;;;31.15;23.73;100014.44;5047292;28;20204;-84
2022/05/20 11:39:26;;;;;;;4.70;1.63;;;;;;;31.59;24.58;100025.63;5047346;28;20291;-83
2022/05/20 11:42:07;;;;;;;3.33;1.40;;;;;;;31.62;20.84;100009.34;5038709;28;20241;-83
2022/05/20 11:44:48;;;;;;;5.15;1.40;;;;;;;31.49;25.80;100009.53;5047778;28;20207;-83
2022/05/20 11:47:45;;;;;;;4.10;1.42;;;;;;;31.59;23.36;100004.50;5047176;28;20227;-84
2022/05/20 11:50:24;;;;;;;2.38;1.50;;;;;;;31.53;22.59;100005.41;5045521;27;20257;-84
2022/05/20 11:53:01;;;;;;;2.45;1.67;;;;;;;31.30;25.69;100001.63;5047310;28;20268;-84
2022/05/20 11:55:36;;;;;;;1.33;1.23;;;;;;;31.09;23.00;99994.19;5046890;28;20210;-83
2022/05/20 11:58:06;;;;;;;1.45;1.35;;;;;;;31.24;25.51;99996.41;5046984;28;20305;-83
2022/05/20 12:00:38;;;;;;;3.00;1.38;;;;;;;31.11;23.09;99984.22;5046805;28;20231;-83
2022/05/20 12:03:08;;;;;;;3.10;1.38;;;;;;;31.17;22.67;99980.66;5047139;28;20246;-85
2022/05/20 12:05:42;;;;;;;2.33;1.50;;;;;;;31.24;23.43;99973.47;5046966;28;20238;-84
2022/05/20 12:08:09;;;;;;;2.72;1.50;;;;;;;31.08;23.61;99966.16;5046859;28;20235;-84
2022/05/20 12:10:47;;;;;;;2.20;1.48;;;;;;;30.82;23.96;99960.19;5047009;28;20203;-84
2022/05/20 12:13:19;;;;;;;1.75;1.55;;;;;;;30.96;24.76;99962.69;5046728;28;20260;-84
2022/05/20 12:15:50;;;;;;;1.73;1.40;;;;;;;31.01;25.88;99966.25;5046644;28;20291;-84
2022/05/20 12:24:33;;;;;;;1.70;1.30;;;;;;;30.54;23.71;99949.31;5047148;28;20252;-80
2022/05/20 12:27:00;;;;;;;2.35;1.40;;;;;;;30.34;26.61;99941.63;5046934;28;20299;-83
2022/05/20 12:29:58;;;;;;;2.72;1.50;;;;;;;30.63;23.39;99942.72;5046684;28;20196;-83
2022/05/20 12:32:44;;;;;;;2.20;1.42;;;;;;;30.78;25.14;99929.97;5046727;28;20330;-84
2022/05/20 12:35:15;;;;;;;3.45;1.70;;;;;;;30.93;23.85;99942.00;5046158;28;20207;-83
2022/05/20 12:38:25;;;;;;;2.33;1.60;;;;;;;30.89;27.75;99941.63;5046377;28;20231;-83
2022/05/20 12:41:13;;;;;;;4.75;1.58;;;;;;;30.96;24.09;99938.91;5046465;28;20210;-83
2022/05/20 12:43:56;;;;;;;3.03;1.40;;;;;;;30.90;25.46;99933.47;5046354;28;20303;-83
2022/05/20 12:46:59;;;;;;;1.98;1.58;;;;;;;30.53;24.55;99919.50;5046529;28;20235;-83
2022/05/20 12:49:28;;;;;;;5.03;1.50;;;;;;;30.71;24.29;99913.38;5046201;28;20192;-83
2022/05/20 12:52:08;;;;;;;2.40;1.40;;;;;;;30.83;24.59;99922.19;5046119;28;20723;-83
2022/05/20 12:54:41;;;;;;;1.50;1.40;;;;;;;30.90;24.74;99922.91;5046328;28;20725;-83
2022/05/20 12:57:11;;;;;;;1.60;1.42;;;;;;;30.82;24.62;99917.94;5046517;28;20269;-83
2022/05/20 12:59:38;;;;;;;2.13;1.50;;;;;;;30.89;25.44;99908.13;5046227;28;20195;-83
2022/05/20 13:02:12;;;;;;;3.42;1.60;;;;;;;30.71;25.02;99908.09;5046251;28;20215;-83